Time;durP1;ratioP1;P1;durP2;ratioP2;P2;SDS_P1;SDS_P2;PMS_P1;PMS_P2;Temp;Humidity;BMP_temperature;BMP_pressure;BME280_temperature;BME280_humidity;BME280_pressure;Samples;Min_cycle;Max_cycle;Signal;HPM_P1;HPM_P2
2023/01/29 00:00:30;;;;;;;9.53;7.73;;;4.00;75.50;;;;;;923125;153;27438;-81
2023/01/29 00:02:56;;;;;;;9.90;7.97;;;4.00;75.50;;;;;;923355;152;27444;-81
2023/01/29 00:05:23;;;;;;;8.93;7.47;;;4.00;75.40;;;;;;923894;152;27431;-80
2023/01/29 00:07:49;;;;;;;8.63;7.23;;;4.00;75.40;;;;;;923478;152;27485;-80
2023/01/29 00:10:16;;;;;;;10.27;7.30;;;4.00;75.30;;;;;;923503;153;27432;-80
2023/01/29 00:12:43;;;;;;;7.07;6.47;;;4.00;75.30;;;;;;924293;152;27395;-80
2023/01/29 00:15:09;;;;;;;8.93;7.43;;;4.00;75.20;;;;;;924317;152;28460;-80
2023/01/29 00:17:36;;;;;;;8.07;7.00;;;4.00;75.30;;;;;;924079;152;27463;-80
2023/01/29 00:20:02;;;;;;;7.87;7.07;;;4.00;75.30;;;;;;922357;153;28467;-80
2023/01/29 00:22:29;;;;;;;8.57;6.93;;;4.00;75.40;;;;;;923479;152;27385;-80
2023/01/29 00:24:55;;;;;;;9.87;7.50;;;4.00;75.40;;;;;;918043;153;27389;-80
2023/01/29 00:27:22;;;;;;;7.97;7.13;;;4.00;75.40;;;;;;923734;152;27444;-80
2023/01/29 00:30:08;;;;;;;9.20;7.20;;;4.00;75.50;;;;;;923597;152;27408;-80
2023/01/29 00:32:15;;;;;;;7.93;7.13;;;4.00;76.40;;;;;;920929;153;27383;-80
2023/01/29 00:34:42;;;;;;;8.03;6.77;;;4.00;75.70;;;;;;923759;152;27377;-80
2023/01/29 00:37:08;;;;;;;9.47;7.80;;;4.00;75.60;;;;;;923928;152;27435;-80
2023/01/29 00:39:37;;;;;;;7.47;6.43;;;4.00;75.60;;;;;;924018;152;27403;-80
2023/01/29 00:44:57;;;;;;;9.67;7.60;;;4.00;74.50;;;;;;923580;152;27445;-81
2023/01/29 00:47:29;;;;;;;7.43;6.73;;;4.10;75.20;;;;;;924110;152;27533;-81
2023/01/29 00:49:56;;;;;;;7.27;6.50;;;4.10;75.10;;;;;;923719;152;27449;-81
2023/01/29 00:52:25;;;;;;;7.20;6.07;;;4.00;74.80;;;;;;923304;152;27883;-81
2023/01/29 00:54:52;;;;;;;7.60;6.00;;;4.10;74.90;;;;;;923260;152;27533;-81
2023/01/29 00:57:18;;;;;;;6.50;5.77;;;4.00;74.60;;;;;;923772;152;27408;-81
2023/01/29 00:59:45;;;;;;;6.43;5.80;;;4.10;74.60;;;;;;923231;153;27381;-81
2023/01/29 01:04:56;;;;;;;6.57;5.73;;;4.00;74.30;;;;;;923034;152;27534;-82
2023/01/29 01:07:23;;;;;;;7.23;6.20;;;4.00;74.40;;;;;;923311;153;27501;-81
2023/01/29 01:12:34;;;;;;;6.87;6.03;;;4.00;74.60;;;;;;922837;152;27483;-81
2023/01/29 01:15:01;;;;;;;7.27;6.13;;;4.00;74.60;;;;;;923502;152;27348;-81
2023/01/29 01:17:27;;;;;;;6.23;5.57;;;4.00;74.60;;;;;;922761;153;27474;-81
2023/01/29 01:19:54;;;;;;;6.90;6.03;;;4.00;74.70;;;;;;923080;153;27400;-81
2023/01/29 01:22:20;;;;;;;6.70;6.10;;;4.00;74.60;;;;;;923368;153;27391;-81
2023/01/29 01:24:47;;;;;;;6.37;5.77;;;4.00;74.50;;;;;;922242;152;27361;-82
2023/01/29 01:27:13;;;;;;;5.67;5.17;;;4.00;74.30;;;;;;912484;153;27374;-81
2023/01/29 01:29:40;;;;;;;6.03;5.43;;;4.00;74.20;;;;;;912832;153;27422;-81
2023/01/29 01:32:07;;;;;;;6.33;5.50;;;4.00;74.30;;;;;;913322;153;27363;-81
2023/01/29 01:34:33;;;;;;;6.87;5.60;;;4.00;74.30;;;;;;913585;154;27419;-82
2023/01/29 01:37:00;;;;;;;6.17;5.57;;;4.00;74.50;;;;;;913381;154;27494;-81
2023/01/29 01:39:26;;;;;;;6.00;5.40;;;4.00;74.50;;;;;;913428;153;27406;-81
2023/01/29 01:41:53;;;;;;;6.83;6.00;;;4.00;74.60;;;;;;913009;154;27418;-81
2023/01/29 01:44:50;;;;;;;7.10;6.00;;;4.00;74.80;;;;;;913840;154;27371;-81
2023/01/29 01:47:17;;;;;;;6.67;5.83;;;4.00;74.80;;;;;;913508;153;27393;-80
2023/01/29 01:49:43;;;;;;;6.57;5.50;;;4.00;75.00;;;;;;912691;153;27339;-80
2023/01/29 01:52:10;;;;;;;8.10;6.23;;;4.00;75.00;;;;;;912874;154;27334;-81
2023/01/29 01:54:37;;;;;;;7.63;5.87;;;4.00;75.10;;;;;;912688;154;27414;-80
2023/01/29 01:57:14;;;;;;;7.40;6.30;;;4.00;75.20;;;;;;912855;154;27444;-80
2023/01/29 01:59:35;;;;;;;6.93;6.23;;;4.00;75.30;;;;;;912762;154;27471;-80
2023/01/29 02:10:15;;;;;;;6.87;6.17;;;4.00;75.40;;;;;;913322;154;27406;-80
2023/01/29 02:12:42;;;;;;;7.43;6.07;;;3.90;75.30;;;;;;913593;154;27359;-80
2023/01/29 02:15:09;;;;;;;7.13;6.00;;;3.90;75.30;;;;;;912986;153;27418;-80
2023/01/29 02:17:35;;;;;;;7.37;6.43;;;3.90;75.20;;;;;;912955;153;27480;-80
2023/01/29 02:20:17;;;;;;;8.37;6.20;;;3.90;75.10;;;;;;912609;153;27969;-80
2023/01/29 02:23:02;;;;;;;6.83;5.87;;;3.80;75.00;;;;;;912136;153;27386;-82
2023/01/29 02:25:47;;;;;;;6.10;5.50;;;3.80;75.00;;;;;;912863;154;27387;-81
2023/01/29 02:28:13;;;;;;;6.70;6.00;;;3.80;75.00;;;;;;921719;153;27428;-81
2023/01/29 02:30:40;;;;;;;6.73;5.77;;;3.70;75.00;;;;;;922885;153;27435;-81
2023/01/29 02:33:12;;;;;;;6.23;5.63;;;3.70;75.60;;;;;;901655;152;27763;-81
2023/01/29 02:35:45;;;;;;;11.03;6.33;;;3.70;75.10;;;;;;923390;152;27365;-81
2023/01/29 02:38:23;;;;;;;7.70;6.87;;;3.60;75.20;;;;;;921540;153;27391;-81
2023/01/29 02:40:55;;;;;;;7.93;6.27;;;3.60;75.30;;;;;;922125;153;27907;-81
2023/01/29 02:43:37;;;;;;;6.50;5.83;;;3.60;75.40;;;;;;905532;152;27309;-82
2023/01/29 02:46:03;;;;;;;7.03;6.00;;;3.60;75.30;;;;;;922885;153;27340;-80
2023/01/29 02:48:30;;;;;;;6.87;6.00;;;3.60;75.30;;;;;;923310;153;27404;-80
2023/01/29 02:50:57;;;;;;;7.00;6.30;;;3.50;75.30;;;;;;920313;153;27743;-80
2023/01/29 02:53:32;;;;;;;6.67;5.47;;;3.50;75.30;;;;;;922132;153;27348;-80
2023/01/29 02:56:01;;;;;;;7.03;6.33;;;3.50;75.30;;;;;;922628;153;27520;-81
2023/01/29 02:58:46;;;;;;;7.20;6.43;;;3.50;75.30;;;;;;922535;152;27482;-80
2023/01/29 03:01:21;;;;;;;7.53;5.67;;;3.50;75.30;;;;;;922827;153;27349;-80
2023/01/29 03:03:54;;;;;;;6.27;5.67;;;3.50;75.40;;;;;;919211;153;27343;-81
2023/01/29 03:06:21;;;;;;;6.47;5.77;;;3.50;75.40;;;;;;923109;153;27325;-80
2023/01/29 03:08:50;;;;;;;6.83;5.90;;;3.50;75.50;;;;;;922064;153;27407;-80
2023/01/29 03:11:17;;;;;;;5.83;5.30;;;3.50;75.40;;;;;;922800;153;27424;-80
2023/01/29 03:13:49;;;;;;;5.27;4.77;;;3.50;75.40;;;;;;923269;153;27369;-80
2023/01/29 03:16:19;;;;;;;5.00;4.53;;;3.50;75.30;;;;;;923340;152;27393;-80
2023/01/29 03:18:47;;;;;;;6.27;4.40;;;3.60;75.10;;;;;;918896;152;27504;-80
2023/01/29 03:32:23;;;;;;;5.10;4.57;;;3.60;74.90;;;;;;913064;154;27485;-80
2023/01/29 03:34:50;;;;;;;4.60;4.17;;;3.70;75.10;;;;;;913426;154;27390;-81
2023/01/29 03:37:37;;;;;;;5.63;5.13;;;3.70;74.90;;;;;;912710;153;27367;-80
2023/01/29 03:40:03;;;;;;;5.27;4.77;;;3.70;75.00;;;;;;911946;154;27402;-81
2023/01/29 03:42:51;;;;;;;5.53;4.90;;;3.70;74.80;;;;;;913067;154;27363;-80
2023/01/29 03:45:21;;;;;;;5.00;4.50;;;3.70;74.70;;;;;;913942;154;27421;-79
2023/01/29 03:47:47;;;;;;;8.30;4.83;;;3.70;74.70;;;;;;912812;154;27397;-79
2023/01/29 03:50:14;;;;;;;5.17;4.67;;;3.70;74.70;;;;;;911497;153;27397;-79
2023/01/29 03:52:40;;;;;;;5.43;4.93;;;3.70;74.70;;;;;;913187;154;27365;-79
2023/01/29 03:55:09;;;;;;;5.10;4.60;;;3.70;74.60;;;;;;912064;154;27500;-79
2023/01/29 03:57:36;;;;;;;5.33;4.83;;;3.80;74.50;;;;;;912609;154;27398;-79
2023/01/29 04:00:07;;;;;;;5.67;5.17;;;3.80;74.40;;;;;;912993;153;27367;-79
2023/01/29 04:02:35;;;;;;;5.27;4.57;;;3.80;74.30;;;;;;913145;153;27491;-79
2023/01/29 04:05:02;;;;;;;5.23;4.73;;;3.80;74.10;;;;;;911496;154;27358;-79
2023/01/29 04:07:32;;;;;;;5.73;5.23;;;3.70;73.90;;;;;;912142;153;27362;-79
2023/01/29 04:09:55;;;;;;;7.33;5.57;;;3.70;73.90;;;;;;912680;154;27362;-79
2023/01/29 04:12:22;;;;;;;7.67;5.80;;;3.70;74.00;;;;;;912546;153;27511;-79
2023/01/29 04:14:48;;;;;;;5.90;5.30;;;3.70;74.00;;;;;;912608;153;27351;-79
2023/01/29 04:17:17;;;;;;;5.87;5.27;;;3.60;74.20;;;;;;912629;153;27387;-79
2023/01/29 04:19:46;;;;;;;6.33;5.50;;;3.60;74.20;;;;;;912718;153;27347;-79
2023/01/29 04:22:15;;;;;;;5.93;5.33;;;3.60;74.30;;;;;;912481;154;27327;-79
2023/01/29 04:24:42;;;;;;;5.97;5.20;;;3.60;74.40;;;;;;911971;153;27331;-79
2023/01/29 04:27:20;;;;;;;6.50;5.83;;;3.60;74.40;;;;;;916322;153;27432;-79
2023/01/29 04:29:47;;;;;;;6.60;5.77;;;3.60;74.30;;;;;;922510;153;27486;-79
2023/01/29 04:32:13;;;;;;;6.43;5.57;;;3.50;74.30;;;;;;922048;153;27363;-79
2023/01/29 04:34:59;;;;;;;5.77;5.17;;;3.50;74.50;;;;;;922882;153;27369;-79
2023/01/29 04:37:31;;;;;;;6.20;5.33;;;3.50;74.50;;;;;;923520;153;27395;-79
2023/01/29 04:40:03;;;;;;;6.23;5.63;;;3.40;74.50;;;;;;922111;153;27510;-79
2023/01/29 04:42:30;;;;;;;6.27;5.57;;;3.30;74.50;;;;;;921651;152;27474;-79
2023/01/29 04:44:59;;;;;;;7.93;6.13;;;3.30;74.50;;;;;;923089;152;27462;-79
2023/01/29 04:47:41;;;;;;;6.27;5.67;;;3.20;74.50;;;;;;922145;152;27749;-79
2023/01/29 04:50:16;;;;;;;6.50;5.60;;;3.20;74.60;;;;;;924367;152;27484;-79
2023/01/29 04:53:10;;;;;;;6.37;5.57;;;3.10;74.60;;;;;;905909;155;27507;-80
2023/01/29 04:55:45;;;;;;;6.80;5.30;;;3.00;74.70;;;;;;906967;153;27415;-79
2023/01/29 04:58:15;;;;;;;6.37;5.43;;;3.00;74.90;;;;;;906402;155;27368;-80
2023/01/29 05:00:44;;;;;;;6.20;5.60;;;2.90;75.00;;;;;;904622;156;27420;-79
2023/01/29 05:03:11;;;;;;;6.47;5.67;;;2.90;75.30;;;;;;903947;156;27354;-79
2023/01/29 05:05:37;;;;;;;7.10;5.83;;;2.90;75.50;;;;;;904468;156;27455;-79
2023/01/29 05:08:04;;;;;;;6.07;5.47;;;2.90;75.70;;;;;;903842;156;27372;-79
2023/01/29 05:10:30;;;;;;;5.70;5.10;;;2.90;75.80;;;;;;905110;156;27428;-79
2023/01/29 05:13:00;;;;;;;5.77;5.27;;;2.90;75.80;;;;;;904819;156;28626;-79
2023/01/29 05:15:26;;;;;;;5.70;5.17;;;2.90;76.00;;;;;;904423;156;27553;-79
2023/01/29 05:18:00;;;;;;;6.30;5.50;;;3.00;76.00;;;;;;902374;156;27401;-79
2023/01/29 05:20:20;;;;;;;7.20;5.30;;;3.00;76.00;;;;;;904165;156;27545;-79
2023/01/29 05:22:47;;;;;;;6.37;5.03;;;3.00;76.10;;;;;;904759;156;27424;-79
2023/01/29 05:25:21;;;;;;;5.43;4.87;;;3.10;76.10;;;;;;904290;156;27460;-79
2023/01/29 05:28:10;;;;;;;5.03;4.63;;;3.10;76.00;;;;;;903167;155;27414;-79
2023/01/29 05:30:33;;;;;;;5.23;4.77;;;3.10;75.80;;;;;;900280;156;27507;-79
2023/01/29 05:32:59;;;;;;;4.93;4.43;;;3.10;75.50;;;;;;901062;156;27438;-79
2023/01/29 05:35:27;;;;;;;6.17;5.03;;;3.10;75.30;;;;;;901145;156;28882;-79
2023/01/29 05:37:53;;;;;;;5.80;5.20;;;3.10;75.40;;;;;;901020;156;27480;-79
2023/01/29 05:40:19;;;;;;;6.20;5.00;;;3.10;75.30;;;;;;900711;157;27444;-79
2023/01/29 05:42:46;;;;;;;5.03;4.60;;;3.10;75.20;;;;;;901037;156;27378;-79
2023/01/29 05:45:12;;;;;;;6.67;5.20;;;3.00;75.10;;;;;;900940;159;27541;-79
2023/01/29 05:47:39;;;;;;;6.23;5.63;;;3.00;75.00;;;;;;900805;157;27381;-79
2023/01/29 05:50:06;;;;;;;5.27;4.80;;;3.00;75.20;;;;;;900337;156;27397;-79
2023/01/29 05:52:32;;;;;;;5.00;4.53;;;2.90;75.00;;;;;;901077;156;27371;-80
2023/01/29 05:54:59;;;;;;;5.07;4.57;;;2.90;75.10;;;;;;900922;156;27432;-79
2023/01/29 05:57:25;;;;;;;6.03;5.43;;;2.80;75.10;;;;;;901382;156;27942;-79
2023/01/29 05:59:52;;;;;;;6.20;5.60;;;2.80;75.20;;;;;;900393;157;27358;-79
2023/01/29 06:02:19;;;;;;;5.60;5.10;;;2.80;75.30;;;;;;901459;156;27901;-79
2023/01/29 06:04:45;;;;;;;6.70;5.37;;;2.70;75.50;;;;;;900608;156;27437;-79
2023/01/29 06:07:12;;;;;;;6.13;5.20;;;2.70;75.60;;;;;;900806;156;27734;-79
2023/01/29 06:09:38;;;;;;;6.30;5.13;;;2.60;75.50;;;;;;900453;156;27482;-79
2023/01/29 06:12:06;;;;;;;6.30;4.83;;;2.70;75.60;;;;;;900878;156;27428;-79
2023/01/29 06:14:31;;;;;;;5.33;4.87;;;2.60;75.70;;;;;;900608;157;27370;-79
2023/01/29 06:16:58;;;;;;;6.03;5.50;;;2.60;75.70;;;;;;900305;156;27469;-79
2023/01/29 06:19:25;;;;;;;6.17;5.57;;;2.60;75.80;;;;;;900581;156;27995;-79
2023/01/29 06:21:51;;;;;;;6.53;5.77;;;2.60;75.90;;;;;;900820;156;27346;-79
2023/01/29 06:24:18;;;;;;;6.83;5.80;;;2.70;76.10;;;;;;900525;157;27468;-79
2023/01/29 06:26:44;;;;;;;7.43;6.60;;;2.70;76.10;;;;;;900737;156;27412;-79
2023/01/29 06:29:11;;;;;;;8.53;6.17;;;2.70;76.30;;;;;;901300;156;27566;-79
2023/01/29 06:31:37;;;;;;;15.10;12.00;;;2.70;76.30;;;;;;902847;155;27378;-79
2023/01/29 06:34:04;;;;;;;10.63;7.83;;;2.70;76.40;;;;;;903177;155;27451;-79
2023/01/29 06:36:31;;;;;;;8.40;7.17;;;2.80;76.40;;;;;;903777;155;27358;-79
2023/01/29 06:38:57;;;;;;;8.20;6.97;;;2.80;76.50;;;;;;903523;155;27526;-79
2023/01/29 06:41:24;;;;;;;6.43;5.83;;;2.80;76.50;;;;;;902322;158;27927;-79
2023/01/29 06:43:50;;;;;;;8.70;5.97;;;2.80;76.50;;;;;;902759;155;27885;-79
2023/01/29 06:46:17;;;;;;;8.97;6.90;;;2.80;76.50;;;;;;902892;155;27678;-79
2023/01/29 06:48:44;;;;;;;6.03;4.93;;;2.80;76.30;;;;;;903057;155;27334;-79
2023/01/29 06:51:10;;;;;;;5.90;5.30;;;2.80;76.20;;;;;;902607;156;27424;-79
2023/01/29 06:53:37;;;;;;;6.73;6.03;;;2.80;76.00;;;;;;902339;155;27438;-79
2023/01/29 06:56:03;;;;;;;11.37;8.17;;;2.90;76.00;;;;;;903441;155;27358;-79
2023/01/29 06:58:30;;;;;;;14.83;10.20;;;2.90;76.10;;;;;;903235;155;27358;-79
2023/01/29 07:01:09;;;;;;;15.40;9.87;;;2.90;76.10;;;;;;903174;155;27964;-79
2023/01/29 07:03:35;;;;;;;7.83;6.90;;;2.90;76.10;;;;;;902831;155;27926;-79
2023/01/29 07:06:02;;;;;;;8.97;6.90;;;2.90;76.10;;;;;;902901;155;27506;-79
2023/01/29 07:08:28;;;;;;;9.83;7.87;;;2.90;76.10;;;;;;902629;155;27330;-79
2023/01/29 07:10:58;;;;;;;9.90;6.73;;;2.90;76.10;;;;;;902434;155;27513;-79
2023/01/29 07:13:24;;;;;;;8.77;6.53;;;2.90;76.20;;;;;;903436;155;27521;-79
2023/01/29 07:15:51;;;;;;;8.90;6.97;;;2.90;76.20;;;;;;902478;155;28739;-79
2023/01/29 07:18:17;;;;;;;7.37;6.60;;;2.90;76.30;;;;;;902769;155;27440;-79
2023/01/29 07:20:44;;;;;;;7.03;5.90;;;2.90;76.30;;;;;;903208;155;27366;-79
2023/01/29 07:23:10;;;;;;;10.17;6.13;;;2.90;76.30;;;;;;902817;156;27443;-79
2023/01/29 07:25:37;;;;;;;7.83;6.23;;;2.90;76.20;;;;;;902242;155;27416;-79
2023/01/29 07:28:04;;;;;;;7.30;5.90;;;2.90;76.30;;;;;;902885;155;27489;-79
2023/01/29 07:30:30;;;;;;;7.77;5.70;;;2.90;76.40;;;;;;905307;155;27487;-79
2023/01/29 07:33:03;;;;;;;7.13;6.33;;;2.90;76.30;;;;;;907168;155;27504;-79
2023/01/29 07:35:29;;;;;;;23.63;10.80;;;3.00;76.40;;;;;;907623;155;27416;-79
2023/01/29 07:37:56;;;;;;;17.37;9.07;;;3.00;76.50;;;;;;907222;155;27396;-79
2023/01/29 07:40:22;;;;;;;15.27;8.03;;;3.00;76.40;;;;;;907395;155;27438;-79
2023/01/29 07:42:49;;;;;;;10.57;7.60;;;3.00;76.50;;;;;;908107;155;27329;-79
2023/01/29 07:45:15;;;;;;;11.23;8.33;;;3.10;76.60;;;;;;907099;155;27428;-79
2023/01/29 07:47:42;;;;;;;18.80;10.70;;;3.10;76.60;;;;;;907115;155;27521;-79
2023/01/29 07:50:09;;;;;;;15.43;9.83;;;3.10;76.50;;;;;;906664;155;27396;-79
2023/01/29 07:52:35;;;;;;;13.50;9.33;;;3.20;76.60;;;;;;907111;155;27373;-79
2023/01/29 07:55:02;;;;;;;12.63;9.07;;;3.20;76.70;;;;;;907239;155;27450;-79
2023/01/29 07:57:29;;;;;;;14.73;8.60;;;3.20;76.80;;;;;;907550;155;27432;-79
2023/01/29 07:59:55;;;;;;;13.83;9.03;;;3.20;76.80;;;;;;907842;155;28860;-79
2023/01/29 08:02:22;;;;;;;8.30;6.37;;;3.30;76.90;;;;;;906897;155;27378;-79
2023/01/29 08:04:48;;;;;;;7.63;6.50;;;3.40;76.70;;;;;;907595;155;27378;-79
2023/01/29 08:07:15;;;;;;;8.30;6.27;;;3.40;76.20;;;;;;907147;155;27432;-79
2023/01/29 08:09:41;;;;;;;8.07;5.53;;;3.50;76.20;;;;;;906962;155;27534;-79
2023/01/29 08:12:08;;;;;;;7.13;5.67;;;3.60;76.30;;;;;;907391;155;27859;-79
2023/01/29 08:14:35;;;;;;;15.77;9.43;;;3.60;76.20;;;;;;902867;155;27363;-80
2023/01/29 08:17:01;;;;;;;14.57;8.57;;;3.70;76.30;;;;;;903385;155;27416;-79
2023/01/29 08:19:28;;;;;;;13.30;7.57;;;3.80;76.30;;;;;;902857;155;27442;-79
2023/01/29 08:21:54;;;;;;;12.43;8.07;;;3.80;76.20;;;;;;902442;155;27563;-79
2023/01/29 08:24:21;;;;;;;8.27;7.20;;;3.90;76.20;;;;;;902851;155;27472;-79
2023/01/29 08:26:48;;;;;;;10.30;7.90;;;4.00;76.40;;;;;;888896;158;27494;-79
2023/01/29 08:29:14;;;;;;;11.17;8.00;;;4.10;76.40;;;;;;903193;155;27896;-79
2023/01/29 08:31:41;;;;;;;10.27;7.77;;;4.20;76.50;;;;;;902180;155;27471;-79
2023/01/29 08:34:07;;;;;;;8.83;6.83;;;4.30;76.50;;;;;;900336;155;28119;-79
2023/01/29 08:36:34;;;;;;;7.50;6.80;;;4.40;77.10;;;;;;891448;158;27387;-79
2023/01/29 08:39:00;;;;;;;6.97;6.23;;;4.60;76.40;;;;;;900405;155;27376;-79
2023/01/29 08:41:27;;;;;;;6.27;5.67;;;4.70;76.30;;;;;;901475;155;27457;-79
2023/01/29 08:43:54;;;;;;;6.47;5.87;;;4.90;76.20;;;;;;900152;155;27517;-79
2023/01/29 08:46:20;;;;;;;7.03;6.33;;;5.10;76.20;;;;;;900646;155;27843;-80
2023/01/29 08:48:47;;;;;;;6.00;5.50;;;5.20;76.00;;;;;;900825;155;27427;-80
2023/01/29 08:51:13;;;;;;;5.43;5.00;;;5.40;75.70;;;;;;900462;155;27363;-79
2023/01/29 08:53:40;;;;;;;5.83;5.33;;;5.50;75.40;;;;;;900381;157;27431;-79
2023/01/29 08:56:07;;;;;;;5.43;4.93;;;5.60;74.90;;;;;;900884;155;27937;-80
2023/01/29 08:58:33;;;;;;;5.27;4.77;;;5.70;74.40;;;;;;900031;156;27902;-80
2023/01/29 09:01:09;;;;;;;6.00;5.47;;;5.80;74.10;;;;;;900538;155;27365;-80
2023/01/29 09:03:35;;;;;;;6.00;5.47;;;5.90;73.80;;;;;;900673;155;27563;-79
2023/01/29 09:06:03;;;;;;;6.77;6.07;;;6.00;73.60;;;;;;900370;155;27522;-80
2023/01/29 09:08:29;;;;;;;6.67;6.07;;;6.00;73.30;;;;;;899983;155;27428;-79
2023/01/29 09:10:56;;;;;;;5.10;4.70;;;6.00;73.00;;;;;;900938;155;27426;-80
2023/01/29 09:13:23;;;;;;;5.87;4.77;;;6.00;72.70;;;;;;899983;156;27456;-80
2023/01/29 09:15:49;;;;;;;5.37;4.67;;;6.00;72.20;;;;;;900658;156;27397;-79
2023/01/29 09:18:16;;;;;;;5.27;4.87;;;6.00;71.80;;;;;;899805;155;27533;-79
2023/01/29 09:20:42;;;;;;;5.27;4.87;;;5.90;71.60;;;;;;900520;156;27509;-79
2023/01/29 09:23:09;;;;;;;5.23;4.70;;;5.80;71.40;;;;;;899919;156;27396;-80
2023/01/29 09:25:35;;;;;;;5.73;5.23;;;5.80;71.60;;;;;;900864;155;27338;-79
2023/01/29 09:28:02;;;;;;;6.00;5.50;;;5.70;71.50;;;;;;900345;155;27474;-80
2023/01/29 09:30:29;;;;;;;5.37;4.70;;;5.70;71.60;;;;;;899963;155;27377;-80
2023/01/29 09:32:55;;;;;;;5.30;4.80;;;5.60;71.70;;;;;;900643;155;27589;-79
2023/01/29 09:35:22;;;;;;;5.10;4.70;;;5.60;71.60;;;;;;900821;155;27336;-80
2023/01/29 09:37:48;;;;;;;5.30;4.50;;;5.60;71.70;;;;;;900535;155;27461;-80
2023/01/29 09:40:18;;;;;;;5.03;4.53;;;5.60;71.60;;;;;;900702;155;27459;-80
2023/01/29 09:42:47;;;;;;;4.80;4.40;;;5.50;71.40;;;;;;899489;155;27502;-80
2023/01/29 09:45:14;;;;;;;6.60;4.60;;;5.50;71.30;;;;;;899989;155;27481;-80
2023/01/29 09:47:40;;;;;;;7.13;4.77;;;5.50;71.50;;;;;;901070;156;27838;-80
2023/01/29 09:50:12;;;;;;;5.00;4.50;;;5.50;71.60;;;;;;900406;155;27424;-79
2023/01/29 09:52:39;;;;;;;5.23;4.70;;;5.50;71.50;;;;;;899960;155;27405;-79
2023/01/29 09:55:14;;;;;;;4.37;4.07;;;5.50;71.60;;;;;;896049;155;27477;-80
2023/01/29 09:57:41;;;;;;;4.57;4.27;;;5.50;71.60;;;;;;899387;156;27762;-80
2023/01/29 10:00:07;;;;;;;4.80;4.30;;;5.50;71.70;;;;;;899436;155;27898;-79
2023/01/29 10:02:34;;;;;;;4.53;4.13;;;5.50;71.70;;;;;;900082;155;27379;-80
2023/01/29 10:05:15;;;;;;;4.80;4.37;;;5.50;71.60;;;;;;899714;155;27433;-80
2023/01/29 10:07:45;;;;;;;4.63;4.00;;;5.50;71.60;;;;;;899196;155;27486;-80
2023/01/29 10:10:11;;;;;;;4.93;4.53;;;5.50;71.50;;;;;;899913;155;27450;-79
2023/01/29 10:12:38;;;;;;;5.73;5.23;;;5.50;71.60;;;;;;900707;155;27372;-79
2023/01/29 10:15:04;;;;;;;5.00;4.60;;;5.60;71.60;;;;;;899398;155;27477;-79
2023/01/29 10:17:36;;;;;;;5.93;5.37;;;5.60;72.20;;;;;;900807;155;27527;-80
2023/01/29 10:20:03;;;;;;;5.77;5.27;;;5.60;71.40;;;;;;899383;156;27522;-80
2023/01/29 10:22:48;;;;;;;5.80;5.30;;;5.70;71.30;;;;;;896426;156;27388;-80
2023/01/29 10:25:15;;;;;;;4.90;4.50;;;5.70;71.00;;;;;;899716;155;27329;-79
2023/01/29 10:27:43;;;;;;;5.23;4.43;;;5.70;71.20;;;;;;899856;155;27376;-79
2023/01/29 10:30:17;;;;;;;5.00;4.50;;;5.70;71.30;;;;;;898421;155;27391;-79
2023/01/29 10:32:44;;;;;;;4.40;4.00;;;5.80;71.30;;;;;;898289;155;28023;-79
2023/01/29 10:35:13;;;;;;;4.50;4.20;;;5.90;71.20;;;;;;897528;155;28511;-79
2023/01/29 10:37:40;;;;;;;4.70;4.30;;;5.90;71.00;;;;;;896016;155;27477;-79
2023/01/29 10:40:22;;;;;;;5.40;4.83;;;5.90;70.90;;;;;;897588;155;27392;-79
2023/01/29 10:43:03;;;;;;;5.23;4.80;;;5.90;70.70;;;;;;896504;156;27392;-79
2023/01/29 10:45:44;;;;;;;5.73;5.13;;;6.00;70.80;;;;;;896773;156;27440;-79
2023/01/29 10:48:48;;;;;;;4.93;4.30;;;6.00;70.80;;;;;;896083;155;27400;-79
2023/01/29 10:51:29;;;;;;;4.47;4.03;;;6.00;70.80;;;;;;918859;153;27334;-79
2023/01/29 10:53:59;;;;;;;4.10;3.80;;;6.00;70.80;;;;;;916860;153;27388;-79
2023/01/29 10:56:37;;;;;;;4.43;4.13;;;6.10;70.70;;;;;;916827;153;27413;-79
2023/01/29 10:59:04;;;;;;;5.40;4.90;;;6.10;70.60;;;;;;918841;153;27415;-80
2023/01/29 11:01:30;;;;;;;5.73;4.77;;;6.10;70.30;;;;;;919062;153;27920;-80
2023/01/29 11:03:57;;;;;;;4.37;3.97;;;6.20;70.40;;;;;;918494;153;27350;-79
2023/01/29 11:06:24;;;;;;;4.50;4.10;;;6.20;70.60;;;;;;917370;153;27360;-79
2023/01/29 11:08:59;;;;;;;5.50;4.63;;;6.20;70.30;;;;;;917948;153;27397;-79
2023/01/29 11:11:41;;;;;;;4.13;3.83;;;6.20;70.10;;;;;;919955;153;27314;-79
2023/01/29 11:14:07;;;;;;;4.30;4.00;;;6.30;70.10;;;;;;917961;153;27412;-79
2023/01/29 11:16:43;;;;;;;4.87;4.30;;;6.30;70.00;;;;;;915213;153;27665;-79
2023/01/29 11:19:09;;;;;;;5.87;4.00;;;6.30;69.70;;;;;;917772;153;27487;-79
2023/01/29 11:21:57;;;;;;;4.47;4.07;;;6.30;69.90;;;;;;917751;153;27366;-80
2023/01/29 11:24:23;;;;;;;4.70;4.30;;;6.40;70.20;;;;;;916779;153;27388;-80
2023/01/29 11:26:50;;;;;;;4.77;4.37;;;6.50;70.40;;;;;;918625;153;27468;-79
2023/01/29 11:29:32;;;;;;;4.90;4.50;;;6.60;70.60;;;;;;918324;153;27385;-80
2023/01/29 11:31:59;;;;;;;5.30;4.80;;;6.70;70.40;;;;;;918745;153;27413;-80
2023/01/29 11:34:32;;;;;;;5.83;4.67;;;6.80;69.80;;;;;;922864;152;27424;-80
2023/01/29 11:36:59;;;;;;;4.47;4.10;;;6.90;69.40;;;;;;923818;152;27450;-80
2023/01/29 11:39:26;;;;;;;4.90;4.50;;;6.90;69.30;;;;;;924696;152;27357;-80
2023/01/29 11:41:58;;;;;;;4.73;4.20;;;6.90;69.20;;;;;;926536;152;27963;-80
2023/01/29 11:44:36;;;;;;;5.13;4.60;;;6.90;69.20;;;;;;927337;152;27496;-80
2023/01/29 11:47:23;;;;;;;5.20;4.50;;;7.00;69.20;;;;;;918715;152;27361;-80
2023/01/29 11:49:48;;;;;;;4.80;4.40;;;7.00;69.20;;;;;;922444;152;28409;-80
2023/01/29 11:52:15;;;;;;;4.90;4.47;;;7.00;69.40;;;;;;921333;152;27341;-80
2023/01/29 11:54:44;;;;;;;5.20;4.70;;;7.00;69.40;;;;;;922888;152;27348;-80
2023/01/29 11:57:13;;;;;;;5.77;5.27;;;7.00;68.60;;;;;;922658;152;27395;-80
2023/01/29 11:59:41;;;;;;;6.73;6.00;;;7.10;69.50;;;;;;920777;152;27521;-80
2023/01/29 12:02:43;;;;;;;10.17;8.03;;;7.10;69.50;;;;;;922388;152;27893;-80
2023/01/29 12:05:12;;;;;;;7.87;5.97;;;7.10;69.30;;;;;;923269;152;27474;-80
2023/01/29 12:07:39;;;;;;;6.17;5.67;;;7.20;69.20;;;;;;920560;152;27363;-80
2023/01/29 12:10:06;;;;;;;5.77;5.27;;;7.20;68.90;;;;;;922339;152;27420;-80
2023/01/29 12:12:32;;;;;;;5.77;5.27;;;7.20;68.90;;;;;;922985;152;27610;-80
2023/01/29 12:15:07;;;;;;;6.30;5.43;;;7.20;68.70;;;;;;921639;152;27443;-81
2023/01/29 12:17:34;;;;;;;5.77;5.27;;;7.20;68.70;;;;;;922467;153;27512;-81
2023/01/29 12:20:16;;;;;;;6.37;5.73;;;7.30;68.90;;;;;;923235;152;27419;-80
2023/01/29 12:22:45;;;;;;;5.87;5.37;;;7.30;68.90;;;;;;923437;152;27923;-81
2023/01/29 12:25:18;;;;;;;6.80;6.20;;;7.30;68.80;;;;;;921943;152;27335;-81
2023/01/29 12:27:47;;;;;;;7.17;6.47;;;7.30;68.60;;;;;;921750;152;27364;-81
2023/01/29 12:30:20;;;;;;;6.53;5.93;;;7.30;68.80;;;;;;921357;152;27914;-81
2023/01/29 12:33:08;;;;;;;10.27;8.67;;;7.30;68.50;;;;;;923994;152;27489;-80
2023/01/29 12:35:43;;;;;;;11.27;8.60;;;7.40;68.60;;;;;;923097;152;27452;-80
2023/01/29 12:38:10;;;;;;;6.57;5.97;;;7.30;68.50;;;;;;921631;153;27832;-80
2023/01/29 12:40:39;;;;;;;7.60;5.70;;;7.40;68.70;;;;;;922014;153;27486;-80
2023/01/29 12:43:17;;;;;;;6.37;5.70;;;7.40;68.50;;;;;;922228;152;27421;-80
2023/01/29 12:45:45;;;;;;;5.40;4.90;;;7.40;68.40;;;;;;923387;152;27329;-80
2023/01/29 12:48:12;;;;;;;8.93;6.67;;;7.40;68.10;;;;;;922865;152;28020;-80
2023/01/29 12:50:38;;;;;;;7.43;6.73;;;7.40;68.10;;;;;;922837;152;27414;-80
2023/01/29 12:53:11;;;;;;;9.27;8.17;;;7.40;68.10;;;;;;922626;152;27388;-80
2023/01/29 12:55:43;;;;;;;7.10;6.40;;;7.40;67.90;;;;;;922938;152;27361;-80
2023/01/29 12:58:16;;;;;;;8.47;6.33;;;7.40;68.10;;;;;;922613;152;28933;-80
2023/01/29 13:00:45;;;;;;;6.80;6.10;;;7.40;67.80;;;;;;922556;152;27376;-80
2023/01/29 13:03:20;;;;;;;6.60;6.00;;;7.40;67.90;;;;;;921690;152;27812;-80
2023/01/29 13:05:53;;;;;;;19.03;12.63;;;7.40;68.00;;;;;;923237;152;27412;-80
2023/01/29 13:08:37;;;;;;;15.30;11.10;;;7.40;67.70;;;;;;917934;152;27392;-80
2023/01/29 13:11:04;;;;;;;8.47;7.40;;;7.40;67.70;;;;;;921995;152;27365;-80
2023/01/29 13:13:51;;;;;;;12.60;10.80;;;7.40;67.50;;;;;;922974;152;27470;-80
2023/01/29 13:16:20;;;;;;;14.20;10.90;;;7.40;67.50;;;;;;922867;152;27565;-80
2023/01/29 13:19:00;;;;;;;10.70;9.27;;;7.40;67.30;;;;;;922756;152;27482;-80
2023/01/29 13:21:26;;;;;;;12.37;10.47;;;7.30;67.30;;;;;;922419;152;27423;-80
2023/01/29 13:23:56;;;;;;;11.63;9.10;;;7.30;67.10;;;;;;922077;152;27311;-80
2023/01/29 13:26:23;;;;;;;8.50;7.63;;;7.20;67.10;;;;;;922413;153;27356;-80
2023/01/29 13:28:49;;;;;;;7.37;6.57;;;7.10;67.20;;;;;;922560;152;27493;-80
2023/01/29 13:31:34;;;;;;;7.93;7.23;;;7.10;67.30;;;;;;922797;153;27484;-80
2023/01/29 13:34:03;;;;;;;9.40;8.53;;;7.00;67.10;;;;;;922173;152;27405;-80